Time;durP1;ratioP1;P1;durP2;ratioP2;P2;SDS_P1;SDS_P2;PMS_P1;PMS_P2;Temp;Humidity;BMP_temperature;BMP_pressure;BME280_temperature;BME280_humidity;BME280_pressure;Samples;Min_cycle;Max_cycle;Signal;HPM_P1;HPM_P2
2022/01/23 00:01:05;;;;;;;30.40;18.35;;;4.80;99.90;;;;;;5008669;28;20300;-80
2022/01/23 00:03:32;;;;;;;33.75;18.38;;;4.80;99.90;;;;;;5009817;28;20204;-79
2022/01/23 00:06:00;;;;;;;34.67;19.25;;;4.90;99.90;;;;;;5009620;28;20232;-79
2022/01/23 00:08:27;;;;;;;29.02;18.70;;;4.80;99.90;;;;;;5008678;28;20216;-80
2022/01/23 00:10:55;;;;;;;28.77;18.08;;;4.90;99.90;;;;;;5009224;28;20209;-79
2022/01/23 00:13:29;;;;;;;26.13;16.63;;;5.00;99.90;;;;;;5007633;28;20212;-79
2022/01/23 00:18:40;;;;;;;26.88;15.80;;;5.00;99.90;;;;;;5002367;28;20191;-80
2022/01/23 00:21:08;;;;;;;23.45;15.70;;;5.10;99.90;;;;;;4999912;28;20213;-79
2022/01/23 00:30:19;;;;;;;23.63;15.45;;;5.00;99.90;;;;;;4999576;28;20221;-80
2022/01/23 00:31:50;;;;;;;25.05;14.70;;;5.10;99.90;;;;;;4997820;28;20597;-79
2022/01/23 00:34:17;;;;;;;25.33;15.95;;;5.10;99.90;;;;;;4999029;28;20208;-80
2022/01/23 00:36:45;;;;;;;20.30;13.70;;;5.20;99.90;;;;;;4998825;28;20676;-81
2022/01/23 00:39:11;;;;;;;19.00;13.02;;;4.90;99.90;;;;;;5030849;22;20224;-82
2022/01/23 00:41:38;;;;;;;22.02;13.10;;;5.20;99.90;;;;;;5023241;28;20213;-83
2022/01/23 00:44:05;;;;;;;17.75;12.70;;;5.20;99.90;;;;;;5023416;28;20227;-83
2022/01/23 00:46:34;;;;;;;24.23;15.35;;;5.20;99.90;;;;;;5023546;28;20268;-83
2022/01/23 00:51:47;;;;;;;17.05;11.15;;;5.20;99.90;;;;;;5027969;28;20586;-81
2022/01/23 00:54:14;;;;;;;16.13;11.25;;;5.20;99.90;;;;;;5027921;28;20204;-82
2022/01/23 00:56:40;;;;;;;19.42;10.65;;;5.20;99.90;;;;;;5029877;28;20204;-81
2022/01/23 00:59:07;;;;;;;17.65;11.95;;;5.20;99.90;;;;;;5034692;28;20224;-80
2022/01/23 01:01:34;;;;;;;17.67;10.05;;;5.30;99.90;;;;;;5034178;28;20208;-82
2022/01/23 01:04:01;;;;;;;19.83;12.85;;;5.30;99.90;;;;;;5028195;28;20224;-82
2022/01/23 01:06:27;;;;;;;16.92;10.95;;;5.30;99.90;;;;;;5026257;28;20208;-81
2022/01/23 01:09:01;;;;;;;16.98;10.27;;;5.10;99.90;;;;;;5026051;28;20232;-81
2022/01/23 01:11:54;;;;;;;16.23;10.38;;;5.30;99.90;;;;;;5025454;28;20212;-84
2022/01/23 01:14:30;;;;;;;14.50;9.85;;;5.30;99.90;;;;;;5025525;28;20212;-81
2022/01/23 01:17:05;;;;;;;12.85;9.32;;;5.30;99.90;;;;;;5025919;28;20214;-83
2022/01/23 01:30:36;;;;;;;17.20;8.77;;;5.40;99.90;;;;;;5023338;28;20753;-82
2022/01/23 01:33:13;;;;;;;12.07;8.90;;;5.30;99.90;;;;;;5026245;28;20224;-83
2022/01/23 01:35:45;;;;;;;14.15;9.73;;;5.30;99.90;;;;;;5026294;28;20247;-81
2022/01/23 01:38:12;;;;;;;16.23;10.23;;;5.30;99.90;;;;;;5024594;28;20215;-83
2022/01/23 01:40:41;;;;;;;17.25;10.57;;;5.20;99.90;;;;;;5024522;28;20232;-82
2022/01/23 01:43:07;;;;;;;13.95;10.10;;;5.20;99.90;;;;;;5023427;28;20216;-83
2022/01/23 01:45:34;;;;;;;12.30;9.95;;;5.20;99.90;;;;;;5024318;28;20200;-82
2022/01/23 01:48:03;;;;;;;20.42;11.05;;;5.20;99.90;;;;;;5029536;28;20232;-83
2022/01/23 01:50:31;;;;;;;13.07;9.68;;;5.20;99.90;;;;;;5037758;28;20212;-83
2022/01/23 01:52:59;;;;;;;12.85;8.85;;;5.20;99.90;;;;;;5032022;28;20212;-83
2022/01/23 01:55:29;;;;;;;9.93;8.20;;;5.20;99.90;;;;;;5024522;28;20232;-82
2022/01/23 01:58:02;;;;;;;11.75;7.78;;;5.30;99.90;;;;;;5028330;28;20208;-80
2022/01/23 02:00:44;;;;;;;9.90;7.47;;;5.20;99.90;;;;;;5030240;28;20228;-81
2022/01/23 02:08:40;;;;;;;11.65;7.82;;;5.40;99.90;;;;;;5031178;28;20188;-81
2022/01/23 02:11:11;;;;;;;12.15;8.57;;;5.40;99.90;;;;;;5020070;28;20274;-81
2022/01/23 02:13:45;;;;;;;9.90;7.35;;;5.30;99.90;;;;;;5019824;28;20207;-83
2022/01/23 02:16:53;;;;;;;10.57;7.07;;;5.30;99.90;;;;;;5020310;28;20213;-81
2022/01/23 02:22:38;;;;;;;11.88;7.28;;;5.20;99.90;;;;;;5021017;28;20240;-81
2022/01/23 02:25:29;;;;;;;9.38;7.57;;;5.30;99.90;;;;;;5025438;28;20614;-83
2022/01/23 02:52:51;;;;;;;9.20;6.97;;;5.40;99.90;;;;;;5027930;28;20199;-80
2022/01/23 02:55:24;;;;;;;11.25;7.40;;;5.50;99.90;;;;;;5029335;28;20188;-78
2022/01/23 02:57:54;;;;;;;9.25;7.03;;;5.40;99.90;;;;;;5023970;28;20260;-82
2022/01/23 03:00:24;;;;;;;11.13;7.32;;;5.40;99.90;;;;;;5020722;28;20228;-82
2022/01/23 03:02:53;;;;;;;9.13;6.03;;;5.40;99.90;;;;;;5020335;28;20315;-82
2022/01/23 03:05:34;;;;;;;9.80;7.55;;;5.40;99.90;;;;;;5021645;28;20291;-82
2022/01/23 03:08:05;;;;;;;9.55;6.65;;;5.40;99.90;;;;;;5020743;28;20198;-82
2022/01/23 03:10:38;;;;;;;8.30;5.25;;;5.40;99.90;;;;;;5021529;28;20252;-81
2022/01/23 03:24:31;;;;;;;6.72;5.57;;;5.90;99.90;;;;;;5018928;28;20215;-81
2022/01/23 03:27:15;;;;;;;7.95;5.75;;;5.40;99.90;;;;;;5019668;28;20216;-81
2022/01/23 03:29:53;;;;;;;9.57;7.30;;;5.40;99.90;;;;;;5020068;28;20224;-81
2022/01/23 03:32:25;;;;;;;9.60;6.57;;;5.40;99.90;;;;;;5019298;28;20208;-81
2022/01/23 03:34:52;;;;;;;7.47;6.00;;;5.40;99.90;;;;;;5019017;28;20695;-81
2022/01/23 03:37:19;;;;;;;10.95;9.13;;;5.30;99.90;;;;;;5019675;28;20208;-82
2022/01/23 03:39:45;;;;;;;10.68;8.60;;;5.40;99.90;;;;;;5021828;28;20232;-80
2022/01/23 03:42:13;;;;;;;12.52;8.55;;;5.40;99.90;;;;;;5029301;28;20220;-80
2022/01/23 03:44:49;;;;;;;14.82;9.00;;;5.40;99.90;;;;;;5029631;28;20216;-81
2022/01/23 03:47:21;;;;;;;10.68;7.85;;;5.40;99.90;;;;;;5021540;28;20189;-83
2022/01/23 03:49:48;;;;;;;13.32;8.65;;;5.30;99.90;;;;;;5018480;28;20255;-81
2022/01/23 03:52:15;;;;;;;9.30;7.60;;;5.50;99.90;;;;;;5018479;28;20204;-82
2022/01/23 03:54:43;;;;;;;9.45;6.75;;;5.50;99.90;;;;;;5018748;28;20230;-82
2022/01/23 03:57:10;;;;;;;8.43;6.80;;;5.30;99.90;;;;;;5021848;28;20212;-82
2022/01/23 03:59:38;;;;;;;9.70;5.88;;;5.20;99.90;;;;;;5024530;28;20255;-82
2022/01/23 04:02:06;;;;;;;11.90;7.07;;;5.40;99.90;;;;;;5021454;28;20209;-81
2022/01/23 04:04:39;;;;;;;10.35;7.53;;;5.30;99.90;;;;;;5022107;28;20252;-82
2022/01/23 04:07:09;;;;;;;9.48;6.45;;;5.40;99.90;;;;;;5023205;28;20199;-82
2022/01/23 04:09:37;;;;;;;8.07;7.22;;;5.50;99.90;;;;;;5027233;28;20250;-83
2022/01/23 04:12:05;;;;;;;10.75;6.93;;;5.40;99.90;;;;;;5024254;28;20216;-83
2022/01/23 04:14:34;;;;;;;11.85;7.75;;;5.40;99.90;;;;;;5025092;28;20671;-82
2022/01/23 04:20:05;;;;;;;12.13;8.05;;;5.30;99.90;;;;;;5024349;28;20221;-82
2022/01/23 04:33:45;;;;;;;10.25;6.93;;;5.40;99.90;;;;;;5041372;28;20172;-80
2022/01/23 05:00:59;;;;;;;10.27;6.43;;;5.20;99.90;;;;;;5030654;28;20262;-81
2022/01/23 05:04:06;;;;;;;9.75;6.50;;;5.20;99.90;;;;;;5022300;28;20213;-81
2022/01/23 05:06:41;;;;;;;9.65;6.65;;;5.20;99.90;;;;;;5019907;28;20534;-83
2022/01/23 05:09:09;;;;;;;9.45;7.65;;;5.40;99.90;;;;;;5020406;28;20224;-82
2022/01/23 05:11:44;;;;;;;10.02;7.28;;;5.30;99.90;;;;;;5020023;28;20200;-81
2022/01/23 05:14:11;;;;;;;10.60;5.88;;;5.30;99.90;;;;;;5020464;28;20180;-82
2022/01/23 05:16:37;;;;;;;10.43;6.65;;;5.10;99.90;;;;;;5020859;28;20211;-82
2022/01/23 05:19:05;;;;;;;7.93;5.80;;;5.30;99.90;;;;;;5025131;28;20228;-83
2022/01/23 05:24:21;;;;;;;12.10;7.55;;;5.30;99.90;;;;;;5021394;28;20227;-81
2022/01/23 05:26:48;;;;;;;10.30;6.50;;;5.40;99.90;;;;;;5022152;28;20189;-81
2022/01/23 05:29:15;;;;;;;8.75;6.40;;;5.40;99.90;;;;;;5035148;28;20224;-80
2022/01/23 05:31:43;;;;;;;12.88;7.47;;;5.30;99.90;;;;;;5035286;28;20212;-81
2022/01/23 05:34:09;;;;;;;11.63;6.82;;;5.30;99.90;;;;;;5032586;28;20255;-82
2022/01/23 05:36:36;;;;;;;10.73;6.03;;;5.30;99.90;;;;;;5021983;28;20200;-80
2022/01/23 05:39:02;;;;;;;8.40;6.25;;;5.40;99.90;;;;;;5020968;28;20290;-82
2022/01/23 05:41:31;;;;;;;9.13;6.50;;;5.30;99.90;;;;;;5020200;28;20189;-82
2022/01/23 05:43:58;;;;;;;10.73;6.95;;;5.20;99.90;;;;;;5028810;28;20247;-81
2022/01/23 05:46:24;;;;;;;8.32;6.95;;;5.30;99.90;;;;;;5039372;28;20256;-82
2022/01/23 05:48:51;;;;;;;8.82;5.93;;;5.30;99.90;;;;;;5025478;28;20201;-82
2022/01/23 05:51:17;;;;;;;11.30;7.40;;;5.30;99.90;;;;;;5024650;28;20200;-82
2022/01/23 05:53:44;;;;;;;11.80;7.57;;;5.30;99.90;;;;;;5038935;28;20231;-79
2022/01/23 05:56:10;;;;;;;10.15;6.85;;;5.20;99.90;;;;;;5030661;28;20204;-82
2022/01/23 05:58:38;;;;;;;11.25;7.38;;;5.30;99.90;;;;;;5021803;28;20237;-79
2022/01/23 06:01:06;;;;;;;13.32;8.07;;;5.20;99.90;;;;;;5021698;28;20259;-81
2022/01/23 06:03:32;;;;;;;10.82;6.97;;;5.20;99.90;;;;;;5023112;28;20723;-81
2022/01/23 06:05:59;;;;;;;11.57;7.70;;;5.30;99.90;;;;;;5025183;28;20228;-79
2022/01/23 06:08:25;;;;;;;11.13;7.05;;;5.30;99.90;;;;;;5029256;28;20216;-82
2022/01/23 06:10:56;;;;;;;13.48;7.28;;;5.30;99.90;;;;;;5027236;28;20311;-81
2022/01/23 06:13:25;;;;;;;15.40;9.38;;;5.40;99.90;;;;;;5032383;28;20208;-82
2022/01/23 06:15:53;;;;;;;13.43;7.97;;;5.30;99.90;;;;;;5028124;28;20207;-83
2022/01/23 06:18:20;;;;;;;12.77;7.82;;;5.30;99.90;;;;;;5023478;28;20663;-80
2022/01/23 06:20:47;;;;;;;10.48;7.00;;;5.30;99.90;;;;;;5022786;28;20278;-81
2022/01/23 06:23:14;;;;;;;13.50;7.68;;;5.30;99.90;;;;;;5022797;28;20204;-82
2022/01/23 06:25:43;;;;;;;13.82;8.68;;;5.30;99.90;;;;;;5022403;28;20624;-82
2022/01/23 06:28:10;;;;;;;12.70;7.53;;;5.30;99.90;;;;;;5023140;28;20242;-81
2022/01/23 06:30:38;;;;;;;12.80;8.55;;;5.20;99.90;;;;;;5021887;28;20243;-81
2022/01/23 06:33:07;;;;;;;13.25;7.93;;;5.30;99.90;;;;;;5024408;28;20200;-80
2022/01/23 06:35:35;;;;;;;11.90;7.95;;;5.30;99.90;;;;;;5023678;28;20264;-81
2022/01/23 06:38:02;;;;;;;12.80;7.93;;;5.30;99.90;;;;;;5027468;28;20202;-83
2022/01/23 06:40:28;;;;;;;12.45;7.85;;;5.30;99.90;;;;;;5055537;22;20224;-78
2022/01/23 06:42:55;;;;;;;15.23;8.73;;;5.30;99.90;;;;;;5030313;28;20229;-78
2022/01/23 06:45:22;;;;;;;12.35;7.38;;;5.30;99.90;;;;;;5028186;28;20854;-78
2022/01/23 06:47:48;;;;;;;10.93;7.90;;;5.40;99.90;;;;;;5030349;28;20268;-78
2022/01/23 06:50:16;;;;;;;12.43;7.43;;;5.40;99.90;;;;;;5032815;28;20228;-78
2022/01/23 06:52:43;;;;;;;10.20;7.05;;;5.40;99.90;;;;;;5031055;28;20211;-78
2022/01/23 06:55:09;;;;;;;12.23;7.85;;;5.40;99.90;;;;;;5030773;28;20197;-78
2022/01/23 06:57:36;;;;;;;13.15;7.90;;;5.40;99.90;;;;;;5031070;28;20262;-78
2022/01/23 07:00:04;;;;;;;14.15;7.95;;;5.50;99.90;;;;;;5030457;28;20579;-78
2022/01/23 07:02:31;;;;;;;16.38;9.95;;;5.10;99.90;;;;;;5029924;28;20439;-78
2022/01/23 07:04:57;;;;;;;14.68;9.32;;;5.30;99.90;;;;;;5030912;28;20224;-78
2022/01/23 07:07:25;;;;;;;11.23;8.57;;;5.30;99.90;;;;;;5031064;28;20204;-78
2022/01/23 07:09:52;;;;;;;11.73;7.32;;;5.30;99.90;;;;;;5030765;28;20224;-78
2022/01/23 07:12:18;;;;;;;15.63;9.30;;;5.30;99.90;;;;;;5030930;28;20204;-78
2022/01/23 07:14:45;;;;;;;11.32;7.20;;;5.30;99.90;;;;;;5031013;28;20196;-77
2022/01/23 07:17:11;;;;;;;11.65;7.40;;;5.50;99.90;;;;;;5030366;28;20192;-77
2022/01/23 07:19:38;;;;;;;12.10;8.02;;;5.40;99.90;;;;;;5028881;28;20231;-77
2022/01/23 07:22:05;;;;;;;12.27;8.05;;;5.40;99.90;;;;;;5024858;28;20231;-79
2022/01/23 07:24:33;;;;;;;14.27;9.18;;;5.40;99.90;;;;;;5019787;28;20585;-79
2022/01/23 07:27:01;;;;;;;9.43;7.97;;;5.40;99.90;;;;;;5017814;28;20236;-80
2022/01/23 07:29:27;;;;;;;9.30;6.50;;;5.60;99.90;;;;;;5017007;28;20228;-80
2022/01/23 07:31:59;;;;;;;13.40;9.35;;;5.50;99.90;;;;;;5016664;28;20211;-80
2022/01/23 07:34:27;;;;;;;14.00;8.02;;;5.50;99.90;;;;;;5016897;28;20268;-80
2022/01/23 07:36:54;;;;;;;10.63;8.15;;;5.40;99.90;;;;;;5016528;28;20254;-79
2022/01/23 07:39:20;;;;;;;12.35;8.35;;;5.60;99.90;;;;;;5015929;28;20211;-79
2022/01/23 07:41:48;;;;;;;10.10;7.80;;;5.50;99.90;;;;;;5016449;28;20188;-80
2022/01/23 07:44:15;;;;;;;12.38;7.22;;;5.50;99.90;;;;;;5018937;28;20228;-78
2022/01/23 07:46:41;;;;;;;10.32;6.85;;;5.50;99.90;;;;;;5021996;28;20215;-80
2022/01/23 07:49:08;;;;;;;9.80;6.53;;;5.00;99.90;;;;;;5021646;28;20211;-78
2022/01/23 07:51:35;;;;;;;12.90;7.30;;;5.50;99.90;;;;;;5021734;28;20208;-80
2022/01/23 07:54:01;;;;;;;10.60;7.55;;;5.50;99.90;;;;;;5020810;28;20274;-80
2022/01/23 07:56:28;;;;;;;12.50;7.70;;;5.50;99.90;;;;;;5020145;28;20260;-80
2022/01/23 07:58:56;;;;;;;10.27;7.35;;;5.50;99.90;;;;;;5020532;28;20284;-79
2022/01/23 08:01:23;;;;;;;12.13;7.68;;;5.60;99.90;;;;;;5020104;28;20228;-80
2022/01/23 08:03:49;;;;;;;10.57;7.20;;;5.70;99.90;;;;;;5020621;28;20201;-79
2022/01/23 08:06:16;;;;;;;10.27;6.90;;;5.70;99.90;;;;;;5021073;28;20706;-79
2022/01/23 08:08:43;;;;;;;11.32;7.07;;;5.60;99.90;;;;;;5020472;28;20204;-80
2022/01/23 08:11:09;;;;;;;13.30;7.20;;;5.60;99.90;;;;;;5020551;28;20252;-80
2022/01/23 08:13:36;;;;;;;10.75;7.55;;;5.70;99.90;;;;;;5021811;28;20247;-80
2022/01/23 08:16:05;;;;;;;11.43;8.02;;;5.70;99.90;;;;;;5020821;28;20235;-80
2022/01/23 08:18:31;;;;;;;10.60;7.45;;;5.70;99.90;;;;;;5020435;28;20262;-80
2022/01/23 08:20:58;;;;;;;10.23;5.88;;;5.90;99.90;;;;;;5020251;28;20726;-80
2022/01/23 08:23:24;;;;;;;12.32;7.32;;;5.60;99.90;;;;;;5024053;28;20231;-79
2022/01/23 08:25:51;;;;;;;9.98;6.13;;;5.60;99.90;;;;;;5036439;28;20235;-78
2022/01/23 08:28:18;;;;;;;9.13;6.90;;;;;;;;;;5034722;28;20228;-82
2022/01/23 08:30:45;;;;;;;12.00;8.90;;;5.70;99.90;;;;;;5021555;28;20520;-80
2022/01/23 08:33:12;;;;;;;10.35;6.93;;;5.80;99.90;;;;;;5020925;28;20200;-80
2022/01/23 08:35:40;;;;;;;12.18;7.45;;;5.80;99.90;;;;;;5020420;28;20196;-80
2022/01/23 08:38:08;;;;;;;8.70;6.15;;;6.00;99.90;;;;;;5020989;28;20215;-79
2022/01/23 08:40:47;;;;;;;9.13;6.53;;;5.70;99.90;;;;;;5024911;28;20224;-80
2022/01/23 08:43:15;;;;;;;10.63;6.97;;;5.90;99.90;;;;;;5020564;28;20555;-80
2022/01/23 08:45:43;;;;;;;14.95;8.27;;;6.00;99.90;;;;;;5020449;28;20645;-79
2022/01/23 08:48:10;;;;;;;11.18;7.80;;;6.00;99.90;;;;;;5020414;28;20209;-79
2022/01/23 08:50:38;;;;;;;9.95;7.00;;;5.90;99.90;;;;;;5020350;28;20255;-80
2022/01/23 08:53:05;;;;;;;12.02;7.93;;;6.00;99.90;;;;;;5019563;28;20270;-80
2022/01/23 08:55:33;;;;;;;7.00;5.68;;;6.10;99.90;;;;;;5020732;28;20274;-82
2022/01/23 08:57:59;;;;;;;7.55;6.07;;;6.10;99.90;;;;;;5020487;28;20200;-80
2022/01/23 09:00:26;;;;;;;7.28;5.90;;;6.10;99.90;;;;;;5019783;28;20220;-80
2022/01/23 09:02:55;;;;;;;9.02;6.05;;;6.20;99.90;;;;;;5024907;28;20204;-80
2022/01/23 09:05:21;;;;;;;11.20;7.75;;;6.20;99.90;;;;;;5024639;28;20219;-80
2022/01/23 09:07:49;;;;;;;8.27;6.30;;;6.10;99.90;;;;;;5025588;28;20204;-81
2022/01/23 09:10:24;;;;;;;7.95;6.30;;;6.20;99.90;;;;;;5033724;28;20220;-79
2022/01/23 09:13:04;;;;;;;7.28;6.35;;;6.00;99.90;;;;;;5031667;28;20191;-78
2022/01/23 09:15:31;;;;;;;10.75;6.80;;;6.00;99.90;;;;;;5026632;28;20180;-81
2022/01/23 09:17:57;;;;;;;9.02;6.40;;;5.80;99.90;;;;;;5026621;28;20216;-80
2022/01/23 09:20:24;;;;;;;8.75;5.75;;;5.90;99.90;;;;;;5027180;28;20224;-79
2022/01/23 09:22:52;;;;;;;9.68;6.88;;;5.90;99.90;;;;;;5024295;28;20232;-80
2022/01/23 09:25:19;;;;;;;10.10;5.38;;;5.90;99.90;;;;;;5021774;28;20263;-79
2022/01/23 09:27:46;;;;;;;7.28;5.30;;;6.00;99.90;;;;;;5020208;28;20216;-80
2022/01/23 09:30:19;;;;;;;7.03;5.18;;;6.00;99.90;;;;;;5020447;28;20229;-80
2022/01/23 09:32:45;;;;;;;8.65;6.68;;;6.00;99.90;;;;;;5021195;28;20220;-80
2022/01/23 09:35:12;;;;;;;5.70;5.20;;;6.00;99.90;;;;;;5020892;28;20201;-80
2022/01/23 09:37:40;;;;;;;8.57;5.47;;;6.10;99.90;;;;;;5020584;28;20561;-79
2022/01/23 09:40:10;;;;;;;8.82;6.70;;;6.10;99.90;;;;;;5019825;28;20232;-80
2022/01/23 09:42:43;;;;;;;9.10;6.65;;;6.00;99.90;;;;;;5024348;28;20212;-81
2022/01/23 09:45:13;;;;;;;9.98;5.88;;;6.10;99.90;;;;;;5024420;28;20696;-81
2022/01/23 09:47:40;;;;;;;9.35;5.28;;;6.10;99.90;;;;;;5020986;28;20710;-79
2022/01/23 09:50:11;;;;;;;7.75;4.93;;;6.10;99.90;;;;;;5019158;28;20279;-79
2022/01/23 09:52:39;;;;;;;6.15;4.85;;;6.10;99.90;;;;;;5019619;28;20200;-79
2022/01/23 09:55:11;;;;;;;8.00;5.82;;;6.10;99.90;;;;;;5021206;28;20224;-78
2022/01/23 09:57:40;;;;;;;9.25;5.95;;;6.20;99.90;;;;;;5032703;28;20204;-78
2022/01/23 10:00:10;;;;;;;9.32;5.38;;;6.30;99.90;;;;;;5036532;28;20212;-79
2022/01/23 10:02:36;;;;;;;8.45;5.57;;;6.40;99.90;;;;;;5032659;28;20231;-78
2022/01/23 10:05:05;;;;;;;7.97;5.90;;;6.40;99.90;;;;;;5029512;28;20224;-80
2022/01/23 10:07:37;;;;;;;6.70;5.43;;;6.50;99.90;;;;;;5030161;28;20200;-80
2022/01/23 10:10:10;;;;;;;7.28;5.32;;;6.40;99.90;;;;;;5033257;28;20284;-80
2022/01/23 10:12:41;;;;;;;10.10;6.50;;;6.40;99.90;;;;;;5033888;28;20208;-78
2022/01/23 10:15:09;;;;;;;7.13;5.50;;;5.80;99.90;;;;;;5033244;28;20192;-78
2022/01/23 10:17:36;;;;;;;7.40;5.32;;;6.10;99.90;;;;;;5033129;28;20208;-79
2022/01/23 10:20:04;;;;;;;8.93;5.10;;;6.10;99.90;;;;;;5031069;28;20208;-79
2022/01/23 10:22:31;;;;;;;10.52;6.20;;;6.30;99.90;;;;;;5027590;28;20303;-81
2022/01/23 10:25:06;;;;;;;9.45;6.22;;;6.50;99.90;;;;;;5026554;28;20594;-79
2022/01/23 10:27:53;;;;;;;5.35;4.85;;;6.30;99.90;;;;;;5030029;28;20199;-78
2022/01/23 10:30:20;;;;;;;10.73;6.75;;;6.20;99.90;;;;;;5030978;28;20247;-79
2022/01/23 10:33:00;;;;;;;8.48;6.43;;;6.30;99.90;;;;;;5029713;28;20208;-79
2022/01/23 10:35:27;;;;;;;7.60;6.00;;;6.40;99.90;;;;;;5030115;28;20200;-79
2022/01/23 10:37:55;;;;;;;6.38;5.22;;;6.50;99.90;;;;;;5030259;28;20216;-79
2022/01/23 10:40:30;;;;;;;11.05;6.53;;;6.30;99.90;;;;;;5030775;28;20753;-79
2022/01/23 10:46:38;;;;;;;7.97;5.18;;;6.10;99.90;;;;;;5026964;28;20198;-81
2022/01/23 10:48:45;;;;;;;7.80;5.45;;;6.10;99.90;;;;;;5031076;28;20220;-78
2022/01/23 10:51:18;;;;;;;11.50;7.82;;;6.20;99.90;;;;;;5026705;28;20278;-80
2022/01/23 10:53:59;;;;;;;7.10;5.93;;;6.30;99.90;;;;;;5021564;28;20189;-80
2022/01/23 10:56:26;;;;;;;13.07;6.32;;;6.30;99.90;;;;;;5027052;28;20200;-80
2022/01/23 10:59:02;;;;;;;7.18;6.18;;;6.50;99.90;;;;;;5028843;28;20214;-81
2022/01/23 11:01:29;;;;;;;11.57;6.25;;;6.60;99.90;;;;;;5028523;28;20278;-79
2022/01/23 11:04:08;;;;;;;10.77;7.13;;;6.70;99.90;;;;;;5026110;28;20215;-80
2022/01/23 11:06:51;;;;;;;11.13;7.28;;;6.70;99.90;;;;;;5028275;28;20216;-78
2022/01/23 11:09:18;;;;;;;7.88;4.95;;;6.80;99.90;;;;;;5024671;28;20223;-79
2022/01/23 11:11:47;;;;;;;6.13;4.95;;;6.70;99.90;;;;;;5022276;28;20198;-79
2022/01/23 11:19:47;;;;;;;6.53;5.20;;;6.60;99.90;;;;;;5031875;28;20238;-78
2022/01/23 11:22:19;;;;;;;8.82;5.90;;;6.50;99.90;;;;;;5024967;28;20211;-79
2022/01/23 11:24:48;;;;;;;6.57;4.85;;;6.40;99.90;;;;;;5022786;28;20222;-79
2022/01/23 11:27:16;;;;;;;7.05;5.60;;;6.30;99.90;;;;;;5019587;28;20201;-80
2022/01/23 11:29:56;;;;;;;5.07;4.53;;;6.40;99.90;;;;;;5018680;28;20283;-80
2022/01/23 11:32:26;;;;;;;4.90;3.90;;;6.30;99.90;;;;;;5019265;28;20199;-80
2022/01/23 11:35:02;;;;;;;4.20;3.47;;;6.40;99.90;;;;;;5022634;28;20211;-80
2022/01/23 11:37:30;;;;;;;4.70;4.10;;;6.40;99.90;;;;;;5021432;28;20188;-80
2022/01/23 11:40:02;;;;;;;5.57;4.95;;;6.50;99.90;;;;;;5019020;28;20232;-80
2022/01/23 11:51:01;;;;;;;5.40;4.22;;;6.70;99.90;;;;;;5019437;28;20251;-80
2022/01/23 11:53:51;;;;;;;5.90;4.53;;;6.70;99.90;;;;;;5026801;28;20193;-82
2022/01/23 11:56:38;;;;;;;7.15;5.75;;;6.70;99.90;;;;;;5023528;28;20176;-81
2022/01/23 11:59:25;;;;;;;7.40;5.88;;;6.80;99.90;;;;;;5024693;28;20203;-80
2022/01/23 12:02:29;;;;;;;8.63;5.60;;;6.80;99.90;;;;;;5022912;28;20529;-80
2022/01/23 12:05:21;;;;;;;8.32;4.93;;;6.80;99.90;;;;;;5018832;28;20192;-80
2022/01/23 12:08:27;;;;;;;6.20;4.05;;;6.80;99.90;;;;;;5013333;28;20204;-81
2022/01/23 12:17:23;;;;;;;4.70;3.50;;;6.90;99.90;;;;;;5024431;28;20260;-79
2022/01/23 12:19:53;;;;;;;3.53;3.10;;;7.30;99.90;;;;;;5031561;28;20232;-79
2022/01/23 12:22:32;;;;;;;4.20;3.20;;;6.90;99.90;;;;;;5027627;28;20320;-79
2022/01/23 12:25:06;;;;;;;4.60;3.63;;;7.00;99.90;;;;;;5019807;28;20207;-78
2022/01/23 12:27:33;;;;;;;4.45;3.83;;;7.10;99.90;;;;;;5019196;28;20191;-81
2022/01/23 12:30:38;;;;;;;5.43;3.53;;;7.00;99.90;;;;;;5017690;28;20805;-80
2022/01/23 12:33:39;;;;;;;5.10;3.38;;;6.90;99.90;;;;;;5020228;28;20242;-80
2022/01/23 12:36:19;;;;;;;3.13;2.47;;;6.90;99.90;;;;;;5024111;28;20185;-80
2022/01/23 12:38:49;;;;;;;3.60;3.30;;;7.00;99.90;;;;;;5023086;28;20192;-81
2022/01/23 12:41:21;;;;;;;4.22;3.67;;;7.00;99.90;;;;;;5038982;22;20647;-81
2022/01/23 12:43:48;;;;;;;3.63;3.30;;;7.10;99.90;;;;;;5023117;28;20185;-83
2022/01/23 12:46:25;;;;;;;4.80;3.25;;;7.00;99.90;;;;;;5027845;28;20336;-81
2022/01/23 12:48:52;;;;;;;3.67;2.47;;;7.20;99.90;;;;;;5038071;28;20315;-83
2022/01/23 12:51:37;;;;;;;5.55;3.03;;;7.10;99.90;;;;;;5033481;28;20292;-82
2022/01/23 12:54:26;;;;;;;2.90;2.70;;;7.20;99.90;;;;;;5027616;28;20254;-81
2022/01/23 12:56:53;;;;;;;2.67;2.45;;;7.00;99.90;;;;;;5021229;28;20254;-83
2022/01/23 12:59:27;;;;;;;2.78;2.30;;;7.10;99.90;;;;;;5023498;28;20208;-83
2022/01/23 13:02:00;;;;;;;3.03;2.60;;;6.90;99.90;;;;;;5022742;28;20384;-82
2022/01/23 13:04:33;;;;;;;3.25;2.95;;;7.00;99.90;;;;;;5023294;28;20295;-83
2022/01/23 13:07:10;;;;;;;2.78;2.58;;;6.90;99.90;;;;;;5023819;28;20232;-83
2022/01/23 13:09:44;;;;;;;3.78;3.47;;;6.80;99.90;;;;;;5023917;28;20689;-82
2022/01/23 13:12:15;;;;;;;3.40;3.10;;;7.00;99.90;;;;;;5028640;28;20189;-81
2022/01/23 13:14:52;;;;;;;4.45;3.53;;;7.00;99.90;;;;;;5031708;28;20192;-80
2022/01/23 13:17:41;;;;;;;3.03;2.70;;;7.00;99.90;;;;;;5031450;28;20211;-80
2022/01/23 13:31:49;;;;;;;3.85;3.13;;;6.80;99.90;;;;;;5029927;28;20234;-82
2022/01/23 13:34:24;;;;;;;5.07;2.72;;;6.70;99.90;;;;;;5030609;28;20227;-82
2022/01/23 13:36:56;;;;;;;3.22;2.83;;;6.70;99.90;;;;;;5028055;28;20200;-82
2022/01/23 13:39:27;;;;;;;4.80;3.25;;;6.90;99.90;;;;;;5028172;28;20208;-80
2022/01/23 13:42:04;;;;;;;3.10;2.90;;;6.80;99.90;;;;;;5028994;28;20219;-80
2022/01/23 13:52:55;;;;;;;4.22;3.83;;;6.80;99.90;;;;;;5003072;28;20192;-83
2022/01/23 13:58:35;;;;;;;6.57;4.97;;;6.80;99.90;;;;;;4969511;28;20198;-81
2022/01/23 14:01:17;;;;;;;5.65;4.80;;;6.90;99.90;;;;;;5024674;28;20232;-83
2022/01/23 14:03:44;;;;;;;5.45;4.55;;;7.00;99.90;;;;;;5022441;28;20246;-82
2022/01/23 14:06:12;;;;;;;5.47;4.75;;;6.70;99.90;;;;;;5023124;28;20227;-81
2022/01/23 14:08:38;;;;;;;5.25;4.78;;;6.80;99.90;;;;;;5024606;28;20213;-83
2022/01/23 14:11:06;;;;;;;5.47;4.90;;;6.80;99.90;;;;;;5028073;28;20228;-83
2022/01/23 14:13:35;;;;;;;9.55;6.90;;;6.70;99.90;;;;;;5027063;28;20204;-82
2022/01/23 14:16:02;;;;;;;8.50;6.80;;;6.70;99.90;;;;;;5024347;28;20227;-81
2022/01/23 14:18:31;;;;;;;7.65;5.43;;;6.70;99.90;;;;;;5023638;28;20231;-83
2022/01/23 14:21:00;;;;;;;7.88;6.03;;;6.70;99.90;;;;;;5023854;28;20287;-82
2022/01/23 14:23:27;;;;;;;7.47;6.10;;;6.70;99.90;;;;;;5023067;28;20247;-82
2022/01/23 14:25:57;;;;;;;6.63;5.32;;;6.80;99.90;;;;;;5022212;28;20220;-83
2022/01/23 14:28:29;;;;;;;8.10;5.70;;;6.80;99.90;;;;;;5022593;28;20181;-83
2022/01/23 14:30:58;;;;;;;5.45;4.93;;;6.70;99.90;;;;;;5023304;28;20224;-82
2022/01/23 14:33:29;;;;;;;6.53;5.32;;;6.60;99.90;;;;;;5023725;28;20204;-83
2022/01/23 14:35:56;;;;;;;5.40;4.88;;;6.60;99.90;;;;;;5024496;28;20189;-82
2022/01/23 14:38:25;;;;;;;5.90;4.85;;;6.70;99.90;;;;;;5025658;28;20200;-80
2022/01/23 14:40:56;;;;;;;6.45;5.60;;;6.70;99.90;;;;;;5024928;28;20451;-82
2022/01/23 14:43:31;;;;;;;7.35;5.28;;;6.70;99.90;;;;;;5024006;28;20258;-82
2022/01/23 14:45:59;;;;;;;9.20;6.45;;;6.60;99.90;;;;;;5023309;28;20188;-81
2022/01/23 14:48:25;;;;;;;6.47;5.07;;;6.80;99.90;;;;;;5024026;28;20656;-83
2022/01/23 14:50:54;;;;;;;9.52;5.40;;;6.80;99.90;;;;;;5025376;28;20220;-82
2022/01/23 14:53:25;;;;;;;6.00;5.40;;;6.60;99.90;;;;;;5033787;28;20188;-84
2022/01/23 14:55:55;;;;;;;9.35;6.97;;;6.80;99.90;;;;;;5025983;28;20262;-82
2022/01/23 14:58:22;;;;;;;8.65;7.80;;;6.40;99.90;;;;;;5026056;28;20284;-83
2022/01/23 15:00:52;;;;;;;8.00;6.80;;;6.60;99.90;;;;;;5022846;28;20315;-82
2022/01/23 15:03:20;;;;;;;7.10;6.38;;;6.60;99.90;;;;;;5026907;28;20204;-81
2022/01/23 15:05:47;;;;;;;5.05;4.65;;;6.70;99.90;;;;;;5027204;28;20266;-82
2022/01/23 15:08:15;;;;;;;3.97;3.67;;;6.60;99.90;;;;;;5025857;28;20239;-81
2022/01/23 15:10:44;;;;;;;3.45;3.15;;;6.60;99.90;;;;;;5025599;28;20224;-80
2022/01/23 15:13:13;;;;;;;3.97;3.58;;;6.60;99.90;;;;;;5025982;28;20200;-83
2022/01/23 15:15:40;;;;;;;6.32;4.00;;;6.60;99.90;;;;;;5031192;28;20239;-82
2022/01/23 15:18:09;;;;;;;4.60;3.67;;;6.60;99.90;;;;;;5027831;28;20211;-83
2022/01/23 15:20:36;;;;;;;5.38;4.38;;;6.60;99.90;;;;;;5027636;28;20639;-83
2022/01/23 15:23:04;;;;;;;11.63;5.55;;;6.60;99.90;;;;;;5027697;28;20204;-83
2022/01/23 15:25:31;;;;;;;5.45;3.47;;;6.70;99.90;;;;;;5028515;28;20204;-82
2022/01/23 15:27:58;;;;;;;6.93;4.60;;;6.80;99.90;;;;;;5029402;28;20228;-83
2022/01/23 15:30:26;;;;;;;4.85;4.10;;;6.70;99.90;;;;;;5027856;28;20216;-84
2022/01/23 15:32:54;;;;;;;4.18;3.53;;;6.70;99.90;;;;;;5028089;28;20235;-83
2022/01/23 15:35:23;;;;;;;3.05;2.80;;;6.70;99.90;;;;;;5029083;28;20200;-83
2022/01/23 15:37:50;;;;;;;4.40;2.70;;;6.70;99.90;;;;;;5034576;28;20215;-79
2022/01/23 15:40:19;;;;;;;2.75;2.55;;;6.50;99.90;;;;;;5037939;28;20243;-77
2022/01/23 15:42:49;;;;;;;3.35;3.05;;;6.50;99.90;;;;;;5038321;28;20207;-77